createdAt,value
2018-02-16T00:00:03.563Z,33.93
2018-02-16T00:04:06.098Z,38.97
2018-02-16T00:08:08.612Z,36.47
2018-02-16T00:12:11.149Z,32.97
2018-02-16T00:16:13.689Z,36.30
2018-02-16T00:20:16.229Z,35.10
2018-02-16T00:24:18.763Z,43.57
2018-02-16T00:28:21.309Z,38.53
2018-02-16T00:32:23.826Z,37.27
2018-02-16T00:36:27.126Z,35.53
2018-02-16T00:40:29.646Z,52.43
2018-02-16T00:44:32.233Z,51.00
2018-02-16T00:48:34.736Z,36.13
2018-02-16T00:52:38.087Z,31.33
2018-02-16T00:56:40.587Z,42.03
2018-02-16T01:00:43.112Z,30.33
2018-02-16T01:04:46.401Z,34.30
2018-02-16T01:08:49.702Z,27.50
2018-02-16T01:12:52.992Z,30.10
2018-02-16T01:16:55.520Z,39.30
2018-02-16T01:20:58.098Z,33.40
2018-02-16T01:25:00.641Z,41.83
2018-02-16T01:29:03.151Z,30.10
2018-02-16T01:33:05.685Z,31.43
2018-02-16T01:37:08.193Z,31.90
2018-02-16T01:41:10.735Z,35.97
2018-02-16T01:45:13.234Z,32.43
2018-02-16T01:49:15.757Z,33.63
2018-02-16T01:53:18.265Z,30.20
2018-02-16T01:57:20.799Z,38.57
2018-02-16T02:01:23.311Z,37.63
2018-02-16T02:05:25.842Z,42.87
2018-02-16T02:09:29.141Z,34.73
2018-02-16T02:13:32.432Z,40.93
2018-02-16T02:17:34.933Z,32.07
2018-02-16T02:21:38.233Z,40.20
2018-02-16T02:25:41.504Z,39.07
2018-02-16T02:29:44.023Z,37.20
2018-02-16T02:33:47.513Z,37.43
2018-02-16T02:37:50.049Z,37.00
2018-02-16T02:41:52.574Z,30.10
2018-02-16T02:45:55.111Z,31.37
2018-02-16T02:49:57.618Z,39.80
2018-02-16T02:54:00.145Z,31.93
2018-02-16T02:58:03.441Z,40.20
2018-02-16T03:02:05.955Z,36.27
2018-02-16T03:06:09.236Z,35.40
2018-02-16T03:10:12.360Z,24.60
2018-02-16T03:14:15.651Z,33.03
2018-02-16T03:18:18.941Z,30.53
2018-02-16T03:22:21.466Z,41.37
2018-02-16T03:26:23.992Z,30.93
2018-02-16T03:30:26.493Z,34.50
2018-02-16T03:34:29.025Z,28.27
2018-02-16T03:38:31.532Z,37.43
2018-02-16T03:42:34.052Z,31.07
2018-02-16T03:46:36.544Z,33.43
2018-02-16T03:50:39.071Z,34.40
2018-02-16T03:54:41.613Z,25.23
2018-02-16T03:58:44.124Z,31.70
2018-02-16T04:02:46.640Z,37.90
2018-02-16T04:06:49.233Z,28.73
2018-02-16T04:10:51.746Z,31.30
2018-02-16T04:14:54.267Z,25.47
2018-02-16T04:18:56.786Z,33.47
2018-02-16T04:22:59.313Z,28.60
2018-02-16T04:27:01.836Z,40.83
2018-02-16T04:31:04.368Z,22.27
2018-02-16T04:35:07.693Z,23.80
2018-02-16T04:39:11.003Z,21.47
2018-02-16T04:43:14.272Z,31.57
2018-02-16T04:47:16.809Z,31.73
2018-02-16T04:51:19.314Z,36.87
2018-02-16T04:55:21.858Z,36.07
2018-02-16T04:59:25.138Z,34.23
2018-02-16T05:03:27.663Z,32.57
2018-02-16T05:07:30.945Z,28.13
2018-02-16T05:11:33.480Z,32.60
2018-02-16T05:15:35.999Z,23.93
2018-02-16T05:19:38.527Z,28.50
2018-02-16T05:23:41.787Z,29.90
2018-02-16T05:27:44.321Z,32.80
2018-02-16T05:31:46.820Z,28.93
2018-02-16T05:35:49.352Z,24.97
2018-02-16T05:39:51.885Z,31.57
2018-02-16T05:43:54.445Z,39.33
2018-02-16T05:47:57.707Z,35.80
2018-02-16T05:52:00.238Z,45.73
2018-02-16T05:56:03.512Z,42.50
2018-02-16T06:00:06.190Z,43.67
2018-02-16T06:04:08.700Z,42.77
2018-02-16T06:08:11.223Z,44.47
2018-02-16T06:12:13.775Z,37.53
2018-02-16T06:16:16.292Z,35.87
2018-02-16T06:20:18.817Z,29.70
2018-02-16T06:24:21.376Z,30.37
2018-02-16T06:28:23.888Z,34.17
2018-02-16T06:32:26.412Z,33.23
2018-02-16T06:36:29.743Z,29.43
2018-02-16T06:40:32.253Z,23.53
2018-02-16T06:44:34.781Z,37.33
2018-02-16T06:48:37.288Z,37.60
2018-02-16T06:52:40.564Z,41.90
2018-02-16T06:56:43.082Z,30.63
2018-02-16T07:00:45.607Z,33.27
2018-02-16T07:04:48.126Z,32.43
2018-02-16T07:08:50.660Z,20.97
2018-02-16T07:12:53.931Z,23.43
2018-02-16T07:16:57.218Z,26.60
2018-02-16T07:21:06.246Z,31.70
2018-02-16T07:25:08.805Z,28.97
2018-02-16T07:29:11.339Z,25.93
2018-02-16T07:33:14.638Z,23.30
2018-02-16T07:37:17.934Z,23.70
2018-02-16T07:41:20.513Z,38.17
2018-02-16T07:45:23.029Z,26.97
2018-02-16T07:49:26.351Z,31.10
2018-02-16T07:53:28.877Z,32.10
2018-02-16T07:57:31.408Z,20.90
2018-02-16T08:01:34.738Z,20.03
2018-02-16T08:05:37.276Z,18.33
2018-02-16T08:09:39.780Z,22.03
2018-02-16T08:13:43.082Z,22.37
2018-02-16T08:17:46.413Z,23.23
2018-02-16T08:21:59.574Z,23.87
2018-02-16T08:26:02.785Z,23.17
2018-02-16T08:30:05.379Z,30.90
2018-02-16T08:34:07.922Z,22.13
2018-02-16T08:38:10.459Z,19.10
2018-02-16T08:42:13.988Z,19.87
2018-02-16T08:46:17.180Z,22.57
2018-02-16T08:50:20.464Z,20.83
2018-02-16T08:54:23.190Z,20.17
2018-02-16T08:58:25.702Z,24.00
2018-02-16T09:02:28.297Z,19.33
2018-02-16T09:06:30.860Z,23.40
2018-02-16T09:10:33.373Z,20.03
2018-02-16T09:14:35.951Z,26.93
2018-02-16T09:18:38.475Z,17.50
2018-02-16T09:22:40.999Z,22.83
2018-02-16T09:26:43.552Z,20.37
2018-02-16T09:30:46.276Z,19.73
2018-02-16T09:34:48.861Z,23.47
2018-02-16T09:38:55.795Z,20.93
2018-02-16T09:42:58.320Z,27.30
2018-02-16T09:47:01.592Z,25.80
2018-02-16T09:51:04.129Z,21.97
2018-02-16T09:55:06.706Z,28.17
2018-02-16T09:59:09.376Z,24.10
2018-02-16T10:03:11.963Z,29.93
2018-02-16T10:07:14.564Z,23.27
2018-02-16T10:11:17.828Z,28.97
2018-02-16T10:15:20.355Z,22.17
2018-02-16T10:19:23.622Z,28.67
2018-02-16T10:23:26.945Z,22.23
2018-02-16T10:27:29.455Z,26.13
2018-02-16T10:31:32.751Z,20.37
2018-02-16T10:35:36.019Z,32.17
2018-02-16T10:39:38.556Z,24.10
2018-02-16T10:43:41.082Z,24.40
2018-02-16T10:47:43.639Z,22.40
2018-02-16T10:51:46.249Z,26.83
2018-02-16T10:55:49.540Z,26.07
2018-02-16T10:59:52.069Z,21.17
2018-02-16T11:03:59.398Z,28.53
2018-02-16T11:08:16.408Z,26.00
2018-02-16T11:12:19.720Z,21.93
2018-02-16T11:16:23.020Z,23.57
2018-02-16T11:20:26.297Z,23.63
2018-02-16T11:24:28.817Z,22.77
2018-02-16T11:28:32.114Z,26.43
2018-02-16T11:32:35.399Z,31.30
2018-02-16T11:36:37.926Z,24.00
2018-02-16T11:40:40.464Z,27.77
2018-02-16T11:44:42.984Z,29.03
2018-02-16T11:48:46.313Z,19.03
2018-02-16T11:52:48.830Z,24.40
2018-02-16T11:56:51.348Z,29.73
2018-02-16T12:00:54.650Z,21.07
2018-02-16T12:04:58.153Z,23.73
2018-02-16T12:09:01.454Z,29.07
2018-02-16T12:13:04.144Z,24.87
2018-02-16T12:17:07.412Z,21.07
2018-02-16T12:21:09.948Z,28.23
2018-02-16T12:25:13.246Z,26.50
2018-02-16T12:29:16.571Z,29.67
2018-02-16T12:33:19.126Z,24.07
2018-02-16T12:37:21.660Z,28.10
2018-02-16T12:41:24.171Z,21.43
2018-02-16T12:45:26.705Z,29.70
2018-02-16T12:49:29.253Z,24.57
2018-02-16T12:53:31.796Z,16.43
2018-02-16T12:57:34.355Z,18.73
2018-02-16T13:01:37.641Z,27.30
2018-02-16T13:05:40.176Z,22.00
2018-02-16T13:09:42.745Z,19.90
2018-02-16T13:13:45.285Z,31.23
2018-02-16T13:17:47.839Z,19.87
2018-02-16T13:21:50.407Z,18.77
2018-02-16T13:25:52.947Z,20.10
2018-02-16T13:29:55.480Z,29.07
2018-02-16T13:33:58.040Z,20.47
2018-02-16T13:38:01.351Z,20.17
2018-02-16T13:42:04.636Z,19.00
2018-02-16T13:46:07.198Z,20.83
2018-02-16T13:50:09.746Z,26.43
2018-02-16T13:54:12.294Z,25.33
2018-02-16T13:58:14.866Z,17.27
2018-02-16T14:02:18.176Z,20.77
2018-02-16T14:06:20.793Z,19.70
2018-02-16T14:10:24.111Z,19.13
2018-02-16T14:14:30.044Z,29.40
2018-02-16T14:18:32.579Z,19.77
2018-02-16T14:22:35.126Z,16.60
2018-02-16T14:26:38.424Z,15.60
2018-02-16T14:30:41.132Z,17.97
2018-02-16T14:34:44.418Z,22.60
2018-02-16T14:38:48.869Z,18.13
2018-02-16T14:42:53.276Z,20.40
2018-02-16T14:46:55.892Z,22.23
2018-02-16T14:50:58.459Z,22.67
2018-02-16T14:55:00.997Z,17.83
2018-02-16T14:59:03.534Z,16.20
2018-02-16T15:03:06.871Z,18.97
2018-02-16T15:07:09.387Z,16.40
2018-02-16T15:11:11.931Z,21.20
2018-02-16T15:15:14.448Z,21.77
2018-02-16T15:19:16.988Z,22.70
2018-02-16T15:23:20.272Z,19.93
2018-02-16T15:27:22.897Z,24.13
2018-02-16T15:31:25.411Z,21.03
2018-02-16T15:35:27.949Z,20.17
2018-02-16T15:39:31.234Z,24.90
2018-02-16T15:43:33.794Z,20.90
2018-02-16T15:47:36.306Z,28.60
2018-02-16T15:51:38.860Z,19.60
2018-02-16T15:55:41.462Z,20.40
2018-02-16T15:59:44.000Z,25.30
2018-02-16T16:03:47.444Z,20.97
2018-02-16T16:07:49.987Z,20.00
2018-02-16T16:11:53.292Z,24.50
2018-02-16T16:15:55.858Z,20.47
2018-02-16T16:19:58.395Z,26.13
2018-02-16T16:24:00.921Z,23.60
2018-02-16T16:28:03.440Z,21.97
2018-02-16T16:32:06.770Z,22.07
2018-02-16T16:36:09.272Z,20.73
2018-02-16T16:40:11.858Z,16.20
2018-02-16T16:44:14.583Z,22.20
2018-02-16T16:48:17.129Z,20.87
2018-02-16T16:52:19.644Z,22.60
2018-02-16T16:56:22.179Z,27.77
2018-02-16T17:00:24.694Z,23.50
2018-02-16T17:04:27.220Z,26.37
2018-02-16T17:08:30.505Z,19.90
2018-02-16T17:12:33.045Z,25.90
2018-02-16T17:16:35.585Z,27.83
2018-02-16T17:20:38.138Z,27.73
2018-02-16T17:24:40.657Z,25.33
2018-02-16T17:28:43.190Z,22.67
2018-02-16T17:32:45.711Z,20.30
2018-02-16T17:36:48.245Z,30.17
2018-02-16T17:40:50.788Z,27.30
2018-02-16T17:44:53.330Z,21.70
2018-02-16T17:48:55.873Z,27.00
2018-02-16T17:52:58.395Z,31.27
2018-02-16T17:57:00.953Z,31.53
2018-02-16T18:01:03.486Z,24.00
2018-02-16T18:05:06.032Z,29.00
2018-02-16T18:09:08.545Z,22.93
2018-02-16T18:13:11.079Z,25.77
2018-02-16T18:17:13.595Z,30.10
2018-02-16T18:21:17.686Z,30.77
2018-02-16T18:25:21.091Z,30.23
2018-02-16T18:29:23.625Z,26.13
2018-02-16T18:33:26.155Z,21.73
2018-02-16T18:37:28.714Z,33.00
2018-02-16T18:41:31.236Z,29.67
2018-02-16T18:45:33.777Z,35.10
2018-02-16T18:49:36.295Z,33.97
2018-02-16T18:53:38.841Z,22.47
2018-02-16T18:57:41.361Z,26.27
2018-02-16T19:01:43.914Z,23.87
2018-02-16T19:05:46.428Z,31.67
2018-02-16T19:09:49.003Z,29.13
2018-02-16T19:13:51.512Z,31.30
2018-02-16T19:17:54.062Z,22.27
2018-02-16T19:21:56.589Z,28.77
2018-02-16T19:25:59.165Z,23.37
2018-02-16T19:30:01.686Z,31.53
2018-02-16T19:34:04.234Z,33.77
2018-02-16T19:38:06.749Z,30.43
2018-02-16T19:42:09.279Z,25.67
2018-02-16T19:46:11.822Z,29.17
2018-02-16T19:50:15.998Z,24.40
2018-02-16T19:54:18.538Z,26.43
2018-02-16T19:58:21.087Z,23.80
2018-02-16T20:02:23.624Z,24.93
2018-02-16T20:06:26.985Z,29.80
2018-02-16T20:10:30.204Z,23.33
2018-02-16T20:14:32.739Z,29.27
2018-02-16T20:18:35.255Z,35.03
2018-02-16T20:22:37.823Z,31.17
2018-02-16T20:26:40.341Z,38.77
2018-02-16T20:30:42.897Z,28.93
2018-02-16T20:34:45.452Z,31.27
2018-02-16T20:38:48.016Z,34.07
2018-02-16T20:42:50.664Z,30.70
2018-02-16T20:46:53.224Z,29.23
2018-02-16T20:50:55.741Z,31.50
2018-02-16T20:54:58.278Z,24.00
2018-02-16T20:59:01.571Z,30.77
2018-02-16T21:03:04.924Z,31.93
2018-02-16T21:07:07.431Z,31.00
2018-02-16T21:11:09.996Z,39.63
2018-02-16T21:15:12.528Z,25.00
2018-02-16T21:19:15.109Z,28.10
2018-02-16T21:23:17.613Z,34.13
2018-02-16T21:27:20.923Z,31.50
2018-02-16T21:31:24.242Z,28.80
2018-02-16T21:35:27.521Z,26.53
2018-02-16T21:39:30.810Z,30.77
2018-02-16T21:43:33.360Z,30.77
2018-02-16T21:47:35.894Z,32.47
2018-02-16T21:51:39.269Z,33.67
2018-02-16T21:55:41.772Z,29.47
2018-02-16T21:59:44.311Z,44.03
2018-02-16T22:03:46.866Z,30.80
2018-02-16T22:07:50.859Z,28.97
2018-02-16T22:11:53.582Z,42.47
2018-02-16T22:15:56.112Z,23.37
2018-02-16T22:19:58.619Z,40.23
2018-02-16T22:24:01.180Z,28.37
2018-02-16T22:28:03.679Z,49.37
2018-02-16T22:32:06.208Z,31.93
2018-02-16T22:36:09.633Z,39.70
2018-02-16T22:40:12.228Z,31.40
2018-02-16T22:44:14.742Z,32.63
2018-02-16T22:48:17.288Z,36.83
2018-02-16T22:52:19.806Z,34.43
2018-02-16T22:56:22.383Z,50.00
2018-02-16T23:00:24.936Z,31.63
2018-02-16T23:04:28.251Z,39.50
2018-02-16T23:08:30.803Z,52.27
2018-02-16T23:12:33.342Z,46.53
2018-02-16T23:16:35.958Z,38.33
2018-02-16T23:20:38.491Z,42.83
2018-02-16T23:24:41.045Z,38.53
2018-02-16T23:28:43.565Z,31.67
2018-02-16T23:32:46.099Z,38.53
2018-02-16T23:36:48.614Z,59.77
2018-02-16T23:40:51.918Z,48.63
2018-02-16T23:44:55.167Z,51.93
2018-02-16T23:48:58.497Z,44.70
2018-02-16T23:53:01.017Z,40.40
2018-02-16T23:57:03.608Z,57.67
